Time;durP1;ratioP1;P1;durP2;ratioP2;P2;SDS_P1;SDS_P2;PMS_P1;PMS_P2;Temp;Humidity;BMP_temperature;BMP_pressure;BME280_temperature;BME280_humidity;BME280_pressure;Samples;Min_cycle;Max_cycle;Signal;HPM_P1;HPM_P2
2022/04/29 00:00:45;;;;;;;19.55;12.82;;;;;;;10.74;61.43;95655.19;5046506;28;20542;-82
2022/04/29 00:03:13;;;;;;;20.42;12.82;;;;;;;11.11;62.31;95732.72;5047602;28;20025;-82
2022/04/29 00:05:40;;;;;;;22.85;13.25;;;;;;;11.35;62.09;95758.78;5032615;28;20542;-82
2022/04/29 00:08:08;;;;;;;18.10;12.82;;;;;;;10.94;61.23;95665.81;5050769;28;20039;-82
2022/04/29 00:10:34;;;;;;;19.98;12.82;;;;;;;10.16;60.91;95523.75;5032268;28;20029;-82
2022/04/29 00:13:01;;;;;;;16.58;11.73;;;;;;;10.32;61.38;95594.34;5050403;28;20036;-82
2022/04/29 00:15:27;;;;;;;17.67;12.73;;;;;;;9.83;62.04;95515.22;5050674;28;20063;-82
2022/04/29 00:17:53;;;;;;;17.80;13.43;;;;;;;10.68;62.30;95656.22;5032489;28;20060;-82
2022/04/29 00:20:18;;;;;;;19.73;12.77;;;;;;;11.12;62.92;95752.13;5049727;28;20741;-82
2022/04/29 00:22:44;;;;;;;19.73;12.80;;;;;;;11.06;62.93;95753.16;5031092;28;20053;-82
2022/04/29 00:25:10;;;;;;;17.90;12.88;;;;;;;10.96;62.98;95758.44;5050238;28;20107;-82
2022/04/29 00:27:37;;;;;;;20.27;12.82;;;;;;;10.29;63.32;95669.09;5050437;28;20033;-82
2022/04/29 00:30:07;;;;;;;17.33;13.02;;;;;;;11.05;63.34;95747.06;5049999;28;20031;-83
2022/04/29 00:32:33;;;;;;;18.23;12.40;;;;;;;10.16;63.00;95629.75;5031857;28;20041;-82
2022/04/29 00:34:58;;;;;;;18.35;12.20;;;;;;;10.61;63.94;95753.78;5050347;28;20051;-83
2022/04/29 00:37:24;;;;;;;19.92;13.10;;;;;;;9.86;63.86;95623.28;5050046;28;20502;-82
2022/04/29 00:39:50;;;;;;;23.38;13.68;;;;;;;10.18;64.06;95633.00;5050084;28;20037;-82
2022/04/29 00:42:21;;;;;;;17.83;13.45;;;;;;;10.89;63.67;95757.88;5049905;28;20037;-82
2022/04/29 00:44:47;;;;;;;22.33;13.30;;;;;;;9.94;63.68;95622.78;5049702;28;20056;-82
2022/04/29 00:47:15;;;;;;;19.60;13.38;;;;;;;10.34;63.71;95700.94;5049070;28;20601;-82
2022/04/29 00:49:42;;;;;;;18.10;12.65;;;;;;;10.31;63.56;95685.53;5049265;28;20037;-82
2022/04/29 00:52:11;;;;;;;19.25;13.35;;;;;;;10.58;64.65;95739.22;5031412;28;20041;-82
2022/04/29 00:54:39;;;;;;;18.52;13.30;;;;;;;10.24;63.99;95672.50;5049585;28;20071;-82
2022/04/29 00:57:13;;;;;;;18.33;13.23;;;;;;;10.75;63.20;95736.38;5049735;28;20037;-82
2022/04/29 00:59:42;;;;;;;19.40;12.95;;;;;;;9.45;62.81;95532.25;5031571;28;20041;-82
2022/04/29 01:02:09;;;;;;;18.02;11.95;;;;;;;9.86;62.59;95590.69;5031350;28;20480;-83
2022/04/29 01:04:46;;;;;;;15.43;11.35;;;;;;;9.58;62.74;95541.56;5049601;28;20033;-82
2022/04/29 01:07:11;;;;;;;19.95;12.88;;;;;;;9.94;62.25;95604.25;5049880;28;20044;-82
2022/04/29 01:09:37;;;;;;;15.18;11.45;;;;;;;10.15;62.49;95649.38;5031076;28;20505;-82
2022/04/29 01:12:02;;;;;;;17.58;11.85;;;;;;;10.10;62.71;95639.56;5031389;28;20029;-83
2022/04/29 01:14:28;;;;;;;15.57;11.27;;;;;;;10.45;63.29;95718.47;5048384;28;20033;-82
2022/04/29 01:16:57;;;;;;;22.90;11.98;;;;;;;9.88;63.07;95626.47;5049273;28;20021;-82
2022/04/29 01:19:22;;;;;;;18.50;12.48;;;;;;;9.87;63.39;95610.84;5049158;28;20036;-82
2022/04/29 01:21:50;;;;;;;19.08;13.02;;;;;;;10.51;63.81;95729.91;5049236;28;20399;-82
2022/04/29 01:24:15;;;;;;;18.95;12.95;;;;;;;9.85;63.09;95619.03;5030966;28;20087;-82
2022/04/29 01:26:41;;;;;;;18.70;11.95;;;;;;;9.76;63.19;95586.16;5031417;28;20402;-82
2022/04/29 01:29:08;;;;;;;19.63;12.30;;;;;;;10.08;62.70;95608.00;5049402;28;20076;-82
2022/04/29 01:31:34;;;;;;;19.08;12.98;;;;;;;9.59;63.05;95561.72;5031106;28;20025;-83
2022/04/29 01:34:00;;;;;;;19.92;13.90;;;;;;;10.13;62.92;95627.66;5029223;28;20089;-82
2022/04/29 01:36:25;;;;;;;18.00;12.18;;;;;;;10.47;63.35;95728.81;5048471;28;20178;-83
2022/04/29 01:38:51;;;;;;;17.10;12.45;;;;;;;9.91;63.13;95627.81;5031211;28;20033;-82
2022/04/29 01:41:16;;;;;;;19.85;12.20;;;;;;;9.76;63.01;95598.63;5031082;28;20118;-82
2022/04/29 01:43:42;;;;;;;16.48;11.50;;;;;;;9.98;62.96;95642.44;5049084;28;20033;-82
2022/04/29 01:46:07;;;;;;;18.40;11.95;;;;;;;10.58;62.94;95723.31;5048856;28;20036;-82
2022/04/29 01:48:33;;;;;;;16.98;11.57;;;;;;;9.84;62.95;95600.78;5048874;28;20013;-82
2022/04/29 01:50:58;;;;;;;16.77;11.20;;;;;;;10.69;62.24;95724.91;5048443;28;20036;-82
2022/04/29 01:53:23;;;;;;;16.98;10.95;;;;;;;10.24;62.41;95666.41;5031017;28;20086;-82
2022/04/29 01:55:49;;;;;;;17.92;11.75;;;;;;;10.23;62.52;95646.25;5048977;28;20033;-82
2022/04/29 01:58:14;;;;;;;17.40;11.90;;;;;;;10.07;62.72;95655.97;5048070;28;20079;-82
2022/04/29 02:00:40;;;;;;;16.52;11.93;;;;;;;10.72;62.12;95723.59;5048310;28;20720;-82
2022/04/29 02:03:06;;;;;;;15.50;10.85;;;;;;;10.69;62.92;95726.75;5048643;28;20047;-82
2022/04/29 02:05:32;;;;;;;18.38;12.35;;;;;;;10.63;62.28;95725.97;5048470;28;20036;-83
2022/04/29 02:08:00;;;;;;;16.30;12.20;;;;;;;9.96;62.57;95631.28;5030258;28;20036;-82
2022/04/29 02:10:26;;;;;;;18.08;12.25;;;;;;;9.45;63.44;95576.47;5048517;28;20024;-82
2022/04/29 02:12:51;;;;;;;16.20;11.48;;;;;;;9.64;63.09;95582.91;5047871;28;20036;-82
2022/04/29 02:15:17;;;;;;;16.45;11.75;;;;;;;9.81;63.56;95633.06;5030840;28;20053;-82
2022/04/29 02:17:43;;;;;;;17.83;11.82;;;;;;;8.65;63.13;95479.63;5048800;28;20040;-83
2022/04/29 02:20:10;;;;;;;16.58;11.82;;;;;;;9.97;63.90;95669.19;5048136;28;20049;-83
2022/04/29 02:22:35;;;;;;;16.90;12.07;;;;;;;9.91;63.59;95668.38;5029992;28;20155;-82
2022/04/29 02:25:01;;;;;;;18.55;12.20;;;;;;;10.33;63.75;95739.88;5047970;28;20162;-82
2022/04/29 02:27:26;;;;;;;17.25;12.52;;;;;;;10.28;63.92;95733.78;5047588;28;20506;-83
2022/04/29 02:29:52;;;;;;;20.50;13.45;;;;;;;10.52;63.71;95736.81;5047996;28;20025;-83
2022/04/29 02:32:18;;;;;;;20.10;13.82;;;;;;;9.57;64.25;95609.63;5047730;28;20029;-82
2022/04/29 02:34:43;;;;;;;19.35;12.68;;;;;;;9.47;63.71;95574.34;5030086;28;20021;-82
2022/04/29 02:37:09;;;;;;;19.50;13.35;;;;;;;10.43;64.01;95739.94;5047904;28;20033;-82
2022/04/29 02:39:35;;;;;;;18.02;12.88;;;;;;;10.35;65.09;95742.28;5048094;28;20025;-82
2022/04/29 02:42:01;;;;;;;19.35;13.45;;;;;;;10.41;64.76;95738.59;5029710;28;20036;-83
2022/04/29 02:44:26;;;;;;;20.20;13.77;;;;;;;9.80;65.15;95644.72;5047997;28;20072;-83
2022/04/29 02:47:07;;;;;;;20.55;13.20;;;;;;;9.90;65.13;95676.56;5048320;28;20028;-82
2022/04/29 02:49:35;;;;;;;20.03;13.90;;;;;;;9.75;65.00;95637.53;5029258;28;20079;-82
2022/04/29 02:52:00;;;;;;;21.45;14.55;;;;;;;9.90;64.93;95642.13;5047709;28;20393;-83
2022/04/29 02:54:25;;;;;;;19.75;14.18;;;;;;;9.61;64.95;95615.22;5029721;28;20094;-83
2022/04/29 02:56:51;;;;;;;23.17;14.45;;;;;;;9.70;64.80;95624.25;5047523;28;20021;-82
2022/04/29 02:59:21;;;;;;;22.85;14.93;;;;;;;10.28;66.40;95736.41;5047985;28;20037;-82
2022/04/29 03:01:47;;;;;;;21.63;14.98;;;;;;;9.68;66.08;95629.03;5047257;28;20025;-82
2022/04/29 03:04:12;;;;;;;21.92;14.95;;;;;;;9.84;65.97;95654.53;5029931;28;20037;-82
2022/04/29 03:06:38;;;;;;;20.00;14.93;;;;;;;10.19;65.65;95679.66;5047849;28;20017;-82
2022/04/29 03:09:04;;;;;;;24.08;14.80;;;;;;;10.52;65.55;95740.25;5047539;28;20387;-82
2022/04/29 03:11:30;;;;;;;22.10;15.75;;;;;;;9.80;66.51;95642.06;5029595;28;20021;-83
2022/04/29 03:13:55;;;;;;;24.05;14.73;;;;;;;9.27;66.77;95570.53;5047413;28;20507;-84
2022/04/29 03:16:21;;;;;;;26.25;16.00;;;;;;;10.59;66.33;95737.38;5029231;28;20033;-82
2022/04/29 03:18:46;;;;;;;24.65;16.05;;;;;;;10.74;65.36;95740.88;5029204;28;20036;-82
2022/04/29 03:21:13;;;;;;;21.67;15.63;;;;;;;9.59;66.46;95612.03;5047631;28;20056;-82
2022/04/29 03:23:38;;;;;;;22.80;15.20;;;;;;;9.31;66.33;95578.75;5025778;28;20134;-82
2022/04/29 03:26:04;;;;;;;22.92;14.68;;;;;;;10.63;66.39;95752.47;5026383;28;20095;-82
2022/04/29 03:28:31;;;;;;;22.10;15.85;;;;;;;10.33;66.45;95704.63;5027514;28;20021;-83
2022/04/29 03:30:57;;;;;;;22.52;15.45;;;;;;;10.34;68.07;95744.13;5027687;28;20026;-83
2022/04/29 03:33:22;;;;;;;23.42;15.75;;;;;;;9.75;67.29;95639.38;5027706;28;20032;-82
2022/04/29 03:35:51;;;;;;;29.73;16.35;;;;;;;9.82;67.72;95661.16;5027677;28;20475;-82
2022/04/29 03:38:17;;;;;;;24.95;16.52;;;;;;;9.57;67.44;95616.78;5028463;28;20095;-83
2022/04/29 03:40:43;;;;;;;19.83;14.15;;;;;;;10.40;67.97;95750.25;5031509;28;20025;-82
2022/04/29 03:43:08;;;;;;;23.30;14.90;;;;;;;10.28;68.05;95765.59;5016790;28;20566;-82
2022/04/29 03:45:34;;;;;;;28.20;15.80;;;;;;;9.52;68.37;95633.44;5026352;28;20025;-82
2022/04/29 03:48:00;;;;;;;22.65;14.18;;;;;;;10.20;68.96;95761.56;5031444;28;20495;-83
2022/04/29 03:50:28;;;;;;;25.10;15.18;;;;;;;9.82;68.78;95712.28;5013680;28;20124;-82
2022/04/29 03:53:02;;;;;;;21.92;14.90;;;;;;;9.40;68.57;95640.75;5029707;28;20156;-83
2022/04/29 03:55:29;;;;;;;22.48;14.70;;;;;;;10.22;68.99;95778.00;5029864;28;20032;-83
2022/04/29 03:57:56;;;;;;;29.27;17.20;;;;;;;10.27;68.26;95762.13;5030237;28;20099;-82
2022/04/29 04:00:31;;;;;;;23.75;16.52;;;;;;;9.57;68.05;95649.34;5030365;28;20026;-82
2022/04/29 04:02:57;;;;;;;21.95;15.02;;;;;;;10.49;68.06;95766.47;5026058;28;20403;-82
2022/04/29 04:05:23;;;;;;;24.65;15.73;;;;;;;10.31;68.34;95757.91;5013967;28;20030;-82
2022/04/29 04:07:49;;;;;;;24.33;15.88;;;;;;;10.33;68.19;95762.94;4993049;28;20593;-83
2022/04/29 04:10:15;;;;;;;23.40;15.43;;;;;;;9.63;68.29;95663.41;5011886;28;20052;-82
2022/04/29 04:12:46;;;;;;;26.13;16.05;;;;;;;9.86;68.24;95686.88;5015781;28;20034;-82
2022/04/29 04:15:13;;;;;;;22.13;14.43;;;;;;;9.76;69.30;95702.72;5011393;28;20088;-83
2022/04/29 04:17:39;;;;;;;23.65;15.35;;;;;;;9.05;69.43;95606.09;5010105;28;20117;-83
2022/04/29 04:20:06;;;;;;;23.60;14.45;;;;;;;9.31;69.61;95670.63;5020876;28;20105;-82
2022/04/29 04:22:35;;;;;;;23.08;15.75;;;;;;;9.47;69.90;95690.81;5002334;28;20033;-82
2022/04/29 04:25:05;;;;;;;26.45;15.30;;;;;;;9.99;69.88;95743.91;5049980;28;20029;-82
2022/04/29 04:27:31;;;;;;;25.08;15.13;;;;;;;9.88;69.64;95756.28;5034483;28;20060;-83
2022/04/29 04:30:01;;;;;;;25.63;16.50;;;;;;;10.16;69.16;95747.19;5045993;28;20339;-83
2022/04/29 04:32:33;;;;;;;24.58;15.55;;;;;;;9.81;69.05;95699.28;5042711;28;20052;-82
2022/04/29 04:35:00;;;;;;;26.52;17.20;;;;;;;9.20;69.05;95604.38;5019217;28;20128;-82
2022/04/29 04:37:27;;;;;;;23.63;15.73;;;;;;;9.73;69.36;95686.53;5042903;28;20029;-83
2022/04/29 04:39:52;;;;;;;27.10;17.52;;;;;;;9.86;69.48;95688.72;5012667;28;20444;-83
2022/04/29 04:42:19;;;;;;;26.17;16.75;;;;;;;10.54;68.72;95783.22;5040129;28;20039;-83
2022/04/29 04:44:49;;;;;;;31.92;17.77;;;;;;;9.59;68.45;95630.56;5025808;28;20048;-82
2022/04/29 04:47:15;;;;;;;28.98;16.98;;;;;;;10.61;68.52;95785.63;5020315;28;20091;-83
2022/04/29 04:49:41;;;;;;;30.05;17.90;;;;;;;9.94;68.72;95683.72;5016245;28;20648;-83
2022/04/29 04:52:06;;;;;;;26.85;17.00;;;;;;;9.76;68.15;95633.03;5037280;28;20043;-83
2022/04/29 04:54:32;;;;;;;27.48;17.83;;;;;;;9.82;68.50;95659.31;5024239;28;20120;-82
2022/04/29 04:56:58;;;;;;;29.48;17.98;;;;;;;9.81;68.39;95643.66;5038574;28;20789;-83
2022/04/29 04:59:23;;;;;;;28.40;18.05;;;;;;;9.94;69.15;95673.13;5019756;28;20090;-83
2022/04/29 05:01:49;;;;;;;30.42;17.50;;;;;;;9.96;69.77;95672.88;5013970;28;20414;-82
2022/04/29 05:04:15;;;;;;;34.05;19.20;;;;;;;9.94;69.55;95659.88;5019320;28;20025;-82
2022/04/29 05:06:40;;;;;;;30.10;18.95;;;;;;;10.05;69.52;95701.28;5031175;28;20543;-82
2022/04/29 05:09:07;;;;;;;32.35;19.58;;;;;;;10.30;69.77;95718.38;5035108;28;20021;-82
2022/04/29 05:11:33;;;;;;;32.80;19.85;;;;;;;10.24;69.42;95682.31;4997041;28;20095;-82
2022/04/29 05:13:59;;;;;;;35.35;19.95;;;;;;;9.90;69.51;95631.53;5011377;28;20040;-82
2022/04/29 05:16:25;;;;;;;36.55;21.42;;;;;;;10.87;69.31;95765.31;5030102;28;20029;-83
2022/04/29 05:18:51;;;;;;;37.35;20.05;;;;;;;10.03;69.25;95653.03;5007370;28;20617;-82
2022/04/29 05:21:17;;;;;;;30.05;20.20;;;;;;;10.72;70.34;95781.97;5018132;28;20037;-82
2022/04/29 05:23:43;;;;;;;38.25;20.10;;;;;;;10.73;70.19;95776.41;5017857;28;20053;-82
2022/04/29 05:26:08;;;;;;;40.90;21.77;;;;;;;10.08;69.97;95671.59;5034432;28;20068;-83
2022/04/29 05:28:34;;;;;;;29.27;18.98;;;;;;;9.80;70.04;95626.16;5028532;28;20108;-82
2022/04/29 05:31:01;;;;;;;31.80;20.45;;;;;;;9.39;70.53;95572.16;5015504;28;20028;-82
2022/04/29 05:33:27;;;;;;;33.72;21.90;;;;;;;10.42;70.48;95746.31;5019236;28;20037;-82
2022/04/29 05:35:53;;;;;;;31.10;19.80;;;;;;;9.87;69.84;95630.19;5033177;28;20568;-82
2022/04/29 05:38:19;;;;;;;36.92;22.23;;;;;;;10.83;69.22;95754.44;5013383;28;20029;-82
2022/04/29 05:43:29;;;;;;;30.17;20.67;;;;;;;10.53;68.97;95688.78;5033420;28;20044;-82
2022/04/29 05:45:55;;;;;;;34.50;20.50;;;;;;;10.89;69.05;95757.88;5017238;28;20029;-83
2022/04/29 05:48:21;;;;;;;36.90;21.48;;;;;;;10.94;69.32;95777.28;5031468;28;20115;-82
2022/04/29 05:50:47;;;;;;;35.92;20.15;;;;;;;11.05;68.74;95775.47;5027042;28;20062;-82
2022/04/29 05:53:12;;;;;;;38.03;21.83;;;;;;;11.28;68.69;95771.53;5025954;28;20029;-82
2022/04/29 05:55:38;;;;;;;36.00;22.17;;;;;;;11.53;67.63;95776.84;5035723;28;20024;-82
2022/04/29 05:58:05;;;;;;;35.90;21.02;;;;;;;11.07;67.26;95704.31;5017632;28;20511;-82
2022/04/29 06:00:30;;;;;;;32.03;18.35;;;;;;;11.09;67.31;95705.66;5029361;28;20063;-82
2022/04/29 06:02:56;;;;;;;29.15;17.90;;;;;;;10.47;66.71;95626.19;5035958;28;20060;-82
2022/04/29 06:05:22;;;;;;;28.02;18.50;;;;;;;11.43;66.65;95758.28;5014024;28;20068;-83
2022/04/29 06:07:48;;;;;;;27.33;17.15;;;;;;;11.05;66.25;95733.00;5025581;28;20705;-82
2022/04/29 06:10:14;;;;;;;32.88;18.88;;;;;;;11.03;66.09;95669.53;5025693;28;20048;-82
2022/04/29 06:12:41;;;;;;;28.27;18.67;;;;;;;11.20;66.19;95694.00;5012013;28;20040;-82
2022/04/29 06:15:12;;;;;;;32.17;18.48;;;;;;;11.65;65.58;95763.31;5032673;28;20063;-82
2022/04/29 06:17:37;;;;;;;31.63;19.83;;;;;;;11.08;65.45;95635.03;5036581;28;20025;-82
2022/04/29 06:20:03;;;;;;;32.53;18.77;;;;;;;11.23;64.80;95636.91;5034491;28;20040;-82
2022/04/29 06:22:29;;;;;;;29.75;17.10;;;;;;;11.70;64.58;95731.44;5005868;28;20033;-82
2022/04/29 06:24:54;;;;;;;33.55;19.17;;;;;;;11.84;64.52;95745.81;5030841;28;20029;-82
2022/04/29 06:27:21;;;;;;;25.73;16.13;;;;;;;10.98;64.21;95613.03;5027201;28;20090;-82
2022/04/29 06:29:46;;;;;;;24.40;16.55;;;;;;;11.39;64.03;95686.28;5011749;28;20748;-83
2022/04/29 06:32:11;;;;;;;23.50;15.63;;;;;;;12.10;64.38;95789.13;5026395;28;20045;-82
2022/04/29 06:34:37;;;;;;;21.83;13.95;;;;;;;11.97;64.47;95787.81;5009588;28;20541;-83
2022/04/29 06:37:03;;;;;;;21.13;15.00;;;;;;;11.55;63.14;95703.00;5016613;28;20752;-83
2022/04/29 06:39:29;;;;;;;21.58;15.00;;;;;;;11.16;63.28;95650.44;5032904;28;20029;-83
2022/04/29 06:41:55;;;;;;;21.42;15.13;;;;;;;12.07;63.23;95787.78;5034750;28;20647;-83
2022/04/29 06:44:20;;;;;;;23.15;14.70;;;;;;;11.45;62.76;95685.22;4995278;28;20033;-82
2022/04/29 06:46:45;;;;;;;25.05;14.68;;;;;;;12.07;62.38;95763.84;5017722;28;20041;-84
2022/04/29 06:49:11;;;;;;;25.00;15.63;;;;;;;11.47;63.16;95691.06;5032801;28;20097;-83
2022/04/29 06:51:37;;;;;;;30.10;15.45;;;;;;;11.16;62.57;95652.28;5037355;28;20033;-82
2022/04/29 06:54:03;;;;;;;26.48;15.55;;;;;;;12.14;62.43;95795.47;5029703;28;20503;-83
2022/04/29 06:56:29;;;;;;;21.38;14.77;;;;;;;11.99;62.96;95794.44;5030846;28;20032;-82
2022/04/29 06:58:54;;;;;;;23.58;14.82;;;;;;;11.23;63.83;95700.63;5012418;28;20039;-82
2022/04/29 07:01:19;;;;;;;22.90;14.68;;;;;;;11.43;63.14;95702.50;5012621;28;20076;-83
2022/04/29 07:03:45;;;;;;;23.23;14.98;;;;;;;12.15;62.56;95783.78;5016461;28;20190;-83
2022/04/29 07:06:11;;;;;;;22.83;15.55;;;;;;;12.28;62.05;95785.91;5016336;28;20032;-83
2022/04/29 07:08:36;;;;;;;27.45;15.35;;;;;;;12.34;62.00;95788.28;5014790;28;20041;-82
2022/04/29 07:11:02;;;;;;;26.77;16.02;;;;;;;11.57;61.60;95651.22;5041085;28;20120;-83
2022/04/29 07:13:28;;;;;;;18.98;13.85;;;;;;;11.76;61.89;95706.47;5015327;28;20040;-83
2022/04/29 07:15:54;;;;;;;26.25;15.00;;;;;;;12.52;61.30;95792.22;5029991;28;20036;-83
2022/04/29 07:18:20;;;;;;;22.88;15.20;;;;;;;12.01;61.31;95685.19;5031809;28;20503;-82
2022/04/29 07:20:45;;;;;;;20.50;13.75;;;;;;;11.94;60.62;95666.06;5027314;28;20065;-82
2022/04/29 07:23:11;;;;;;;19.70;12.75;;;;;;;12.11;60.07;95703.78;5027876;28;20072;-83
2022/04/29 07:25:37;;;;;;;20.75;13.18;;;;;;;12.02;60.51;95657.53;5027297;28;20497;-82
2022/04/29 07:28:02;;;;;;;25.50;14.48;;;;;;;12.32;60.27;95704.50;5031347;28;20037;-83
2022/04/29 07:30:28;;;;;;;21.95;14.23;;;;;;;12.68;60.14;95735.22;5033457;28;20396;-83
2022/04/29 07:32:54;;;;;;;24.48;14.30;;;;;;;12.24;60.08;95652.66;5033620;28;20573;-83
2022/04/29 07:43:34;;;;;;;22.35;13.23;;;;;;;12.67;56.92;95675.09;5028399;28;20063;-83
2022/04/29 07:46:01;;;;;;;17.85;13.32;;;;;;;11.39;57.77;95481.00;5033492;28;20033;-83
2022/04/29 07:48:27;;;;;;;21.45;13.93;;;;;;;13.04;57.93;95703.13;5027944;28;20035;-83
2022/04/29 07:50:52;;;;;;;16.45;12.07;;;;;;;13.16;57.28;95772.81;5018705;28;20028;-83
2022/04/29 07:53:21;;;;;;;14.23;11.10;;;;;;;12.97;56.87;95751.31;5001449;28;20056;-83
2022/04/29 07:55:47;;;;;;;16.75;12.07;;;;;;;12.09;56.63;95610.19;5029289;28;20132;-83
2022/04/29 07:58:13;;;;;;;20.02;12.63;;;;;;;13.30;56.49;95754.38;5025279;28;20037;-82
2022/04/29 08:00:38;;;;;;;21.00;12.18;;;;;;;12.91;55.59;95661.91;5011504;28;20571;-83
2022/04/29 08:03:04;;;;;;;15.23;11.43;;;;;;;12.76;55.75;95657.47;5008695;28;20446;-83
2022/04/29 08:05:31;;;;;;;21.70;12.90;;;;;;;12.91;55.63;95637.94;5030575;28;20573;-82
2022/04/29 08:07:59;;;;;;;21.35;12.23;;;;;;;13.24;55.10;95679.03;5029711;28;20039;-82
2022/04/29 08:10:29;;;;;;;14.75;10.48;;;;;;;13.85;53.18;95769.97;5026091;28;20060;-83
2022/04/29 08:12:57;;;;;;;14.50;8.82;;;;;;;13.94;52.24;95764.03;5027635;28;20042;-82
2022/04/29 08:15:27;;;;;;;12.93;8.75;;;;;;;13.41;53.02;95690.09;5028678;28;20041;-83
2022/04/29 08:17:52;;;;;;;13.30;9.38;;;;;;;13.02;51.67;95606.72;5027542;28;20447;-83
2022/04/29 08:20:18;;;;;;;12.27;8.80;;;;;;;14.26;51.08;95765.06;5030218;28;20040;-83
2022/04/29 08:22:44;;;;;;;15.75;9.30;;;;;;;13.39;50.70;95643.50;5005100;28;20396;-83
2022/04/29 08:25:10;;;;;;;16.70;11.45;;;;;;;12.84;53.37;95588.75;5033381;28;20033;-83
2022/04/29 08:27:35;;;;;;;18.40;11.90;;;;;;;13.57;53.90;95681.97;5013106;28;20038;-82
2022/04/29 08:30:02;;;;;;;17.33;10.85;;;;;;;14.10;53.17;95758.28;5014368;28;20246;-83
2022/04/29 08:32:27;;;;;;;22.73;12.77;;;;;;;14.10;53.52;95773.50;5028894;28;20119;-83
2022/04/29 08:34:53;;;;;;;17.10;12.32;;;;;;;13.62;54.11;95671.25;5015665;28;20784;-82
2022/04/29 08:37:19;;;;;;;15.35;10.70;;;;;;;13.41;53.87;95690.09;5015862;28;20247;-82
2022/04/29 08:39:47;;;;;;;17.70;10.63;;;;;;;13.11;53.87;95613.84;5009480;28;20055;-83
2022/04/29 08:42:14;;;;;;;15.25;10.98;;;;;;;12.88;53.01;95585.28;5031689;28;20595;-83
2022/04/29 08:44:42;;;;;;;20.85;11.90;;;;;;;13.34;53.40;95640.88;5034317;28;20144;-82
2022/04/29 08:47:08;;;;;;;17.13;9.50;;;;;;;13.08;51.41;95571.81;5035677;28;20037;-82
2022/04/29 08:49:35;;;;;;;13.50;9.80;;;;;;;14.26;51.61;95756.25;5028448;28;20056;-82
2022/04/29 08:52:01;;;;;;;15.90;10.30;;;;;;;13.91;51.34;95696.84;5012291;28;20033;-83
2022/04/29 09:00:04;;;;;;;14.00;9.35;;;;;;;14.28;50.76;95749.56;5038708;28;20291;-81
2022/04/29 09:02:38;;;;;;;16.27;9.73;;;;;;;13.96;50.59;95688.00;5010877;28;21024;-81
2022/04/29 09:05:07;;;;;;;12.18;9.02;;;;;;;14.42;50.12;95735.59;5034997;28;20029;-83
2022/04/29 09:07:56;;;;;;;20.17;10.68;;;;;;;13.92;50.43;95670.97;5033673;28;20030;-81
2022/04/29 09:10:27;;;;;;;12.85;8.52;;;;;;;14.04;49.71;95658.03;5043194;28;20039;-83
2022/04/29 09:12:52;;;;;;;14.93;9.02;;;;;;;13.68;49.20;95592.84;5011208;28;20414;-83
2022/04/29 09:15:18;;;;;;;14.57;9.23;;;;;;;14.23;48.90;95618.09;5033231;28;20059;-83
2022/04/29 09:17:45;;;;;;;15.90;9.77;;;;;;;15.03;48.64;95735.63;5033304;28;20037;-83
2022/04/29 09:20:21;;;;;;;12.90;10.02;;;;;;;14.48;49.23;95681.06;5016046;28;20040;-83
2022/04/29 09:22:49;;;;;;;13.38;9.68;;;;;;;14.84;48.98;95730.28;5018558;28;20045;-83
2022/04/29 09:25:16;;;;;;;15.73;10.45;;;;;;;14.02;49.51;95627.41;5032706;28;20162;-83
2022/04/29 09:28:01;;;;;;;15.95;8.88;;;;;;;14.60;49.01;95726.81;5028850;28;20109;-83
2022/04/29 09:30:39;;;;;;;16.00;10.15;;;;;;;14.97;48.89;95728.75;5014226;28;20056;-82
2022/04/29 09:33:26;;;;;;;14.68;8.63;;;;;;;13.77;47.84;95567.97;5004397;28;20346;-82
2022/04/29 09:35:56;;;;;;;11.90;8.68;;;;;;;15.05;47.54;95725.44;5006844;28;20103;-82
2022/04/29 09:41:08;;;;;;;14.45;9.80;;;;;;;14.63;47.11;95614.94;5036459;28;20260;-81
2022/04/29 09:43:44;;;;;;;17.27;9.15;;;;;;;14.53;45.92;95627.63;5013995;28;20037;-82
2022/04/29 09:46:14;;;;;;;17.17;8.85;;;;;;;15.17;46.37;95704.47;5032757;28;20092;-83
2022/04/29 09:48:58;;;;;;;17.73;9.32;;;;;;;15.57;46.96;95735.13;5033201;28;20029;-82
2022/04/29 09:51:49;;;;;;;18.45;8.95;;;;;;;15.63;46.10;95731.31;5025026;28;20032;-83
2022/04/29 09:54:24;;;;;;;14.30;8.65;;;;;;;15.52;45.66;95729.06;5038042;28;20029;-83
2022/04/29 09:57:12;;;;;;;16.42;8.63;;;;;;;15.49;45.57;95725.06;5022792;28;20064;-84
2022/04/29 09:59:42;;;;;;;8.38;6.97;;;;;;;15.48;45.29;95726.19;5022307;28;20048;-82
2022/04/29 10:02:10;;;;;;;14.55;10.18;;;;;;;15.60;45.31;95721.19;5037446;28;21466;-84
2022/04/29 10:04:41;;;;;;;12.18;8.60;;;;;;;15.27;45.47;95682.13;5019867;28;20040;-83
2022/04/29 10:07:09;;;;;;;8.98;7.85;;;;;;;14.80;44.94;95601.06;5027604;28;20036;-83
2022/04/29 10:09:38;;;;;;;15.07;8.32;;;;;;;14.93;45.14;95596.91;5023095;28;20383;-83
2022/04/29 10:12:09;;;;;;;12.73;8.65;;;;;;;15.81;44.97;95709.09;5039709;28;20097;-84
2022/04/29 10:14:38;;;;;;;18.00;10.40;;;;;;;16.30;45.03;95704.22;5020822;28;20092;-84
2022/04/29 10:22:53;;;;;;;10.45;7.82;;;;;;;14.04;43.71;95417.25;5039833;28;20310;-83
2022/04/29 10:25:21;;;;;;;12.15;8.68;;;;;;;15.52;44.18;95590.84;5031541;28;20026;-82
2022/04/29 10:27:49;;;;;;;15.80;7.93;;;;;;;15.50;43.68;95617.06;5020935;28;20744;-84
2022/04/29 10:30:17;;;;;;;11.10;8.82;;;;;;;15.88;43.44;95686.50;5034878;28;20041;-83
2022/04/29 10:33:02;;;;;;;13.80;8.20;;;;;;;16.38;43.65;95700.84;5009114;28;20158;-82
2022/04/29 10:35:43;;;;;;;14.73;7.93;;;;;;;16.28;43.02;95695.69;5009473;28;20479;-83
2022/04/29 10:38:22;;;;;;;11.65;8.07;;;;;;;16.32;43.12;95686.78;5014847;28;20127;-82
2022/04/29 10:41:14;;;;;;;13.38;7.57;;;;;;;16.21;42.87;95670.13;5011749;28;20294;-82
2022/04/29 10:44:00;;;;;;;12.27;8.02;;;;;;;16.67;43.76;95692.53;5030026;28;21696;-82
2022/04/29 10:46:36;;;;;;;10.30;8.38;;;;;;;15.70;44.52;95575.88;5018772;28;20047;-81
2022/04/29 10:49:22;;;;;;;17.65;9.80;;;;;;;16.96;43.50;95685.75;5011399;28;20032;-82
2022/04/29 10:51:49;;;;;;;12.77;8.65;;;;;;;17.09;42.78;95684.13;5032949;28;20029;-81
2022/04/29 10:54:15;;;;;;;16.10;9.27;;;;;;;17.32;42.43;95679.59;5035151;28;20537;-81
2022/04/29 10:56:41;;;;;;;13.23;8.45;;;;;;;17.63;41.84;95682.38;5038551;28;20028;-82
2022/04/29 10:59:06;;;;;;;10.45;8.15;;;;;;;17.43;41.24;95682.84;5023534;28;20360;-81
2022/04/29 11:01:36;;;;;;;11.88;7.80;;;;;;;17.33;41.68;95673.94;5049415;28;20025;-82
2022/04/29 11:04:06;;;;;;;15.50;7.85;;;;;;;16.98;40.63;95543.47;5022289;28;20056;-82
2022/04/29 11:06:36;;;;;;;15.10;8.38;;;;;;;17.58;40.02;95597.44;5036650;28;20029;-82
2022/04/29 11:09:02;;;;;;;13.68;9.35;;;;;;;18.21;40.40;95635.81;5036589;28;20029;-82
2022/04/29 11:11:43;;;;;;;13.43;8.95;;;;;;;17.95;40.11;95566.72;5034787;28;20098;-82
2022/04/29 11:14:10;;;;;;;9.00;7.90;;;;;;;17.94;39.17;95570.50;5042967;28;20092;-85
2022/04/29 11:17:08;;;;;;;12.25;8.43;;;;;;;18.45;38.88;95644.28;5017489;28;20052;-85
2022/04/29 11:19:45;;;;;;;10.68;7.93;;;;;;;18.38;38.42;95574.91;5040059;28;20503;-85
2022/04/29 11:25:01;;;;;;;13.43;8.00;;;;;;;18.56;38.97;95650.94;5030713;28;20048;-85
2022/04/29 11:27:29;;;;;;;15.40;9.43;;;;;;;18.31;39.66;95612.13;5011963;28;20040;-83
2022/04/29 11:30:02;;;;;;;13.65;8.98;;;;;;;18.37;39.47;95623.56;5029686;28;20546;-84
2022/04/29 11:32:28;;;;;;;12.27;8.20;;;;;;;17.77;39.54;95575.03;5009191;28;20048;-84
2022/04/29 11:35:00;;;;;;;11.93;8.30;;;;;;;17.48;40.11;95586.97;5035067;28;20171;-83
2022/04/29 11:37:29;;;;;;;13.77;8.80;;;;;;;18.06;39.58;95596.75;5029239;28;20032;-84
2022/04/29 11:39:56;;;;;;;9.80;7.85;;;;;;;17.64;39.60;95526.50;5036184;28;20047;-83
2022/04/29 11:42:22;;;;;;;12.23;8.10;;;;;;;17.29;40.40;95573.78;5013087;28;20531;-84
2022/04/29 11:44:51;;;;;;;10.52;8.68;;;;;;;18.05;39.55;95613.97;5012558;28;20114;-84
2022/04/29 11:47:22;;;;;;;14.40;8.50;;;;;;;18.17;38.97;95533.63;5008021;28;20025;-83
2022/04/29 11:49:47;;;;;;;10.55;8.35;;;;;;;18.73;37.96;95640.25;5004553;28;20025;-84
2022/04/29 11:52:29;;;;;;;12.27;7.57;;;;;;;18.09;37.36;95472.66;5011812;28;20062;-83